sensor_id;sensor_type;location;lat;lon;timestamp;P1;durP1;ratioP1;P2;durP2;ratioP2
64832;SDS011;51290;45.060;38.948;2023-04-03T00:01:38;2.58;;;1.50;;
64832;SDS011;51290;45.060;38.948;2023-04-03T00:04:05;2.03;;;1.38;;
64832;SDS011;51290;45.060;38.948;2023-04-03T00:06:31;1.60;;;1.30;;
64832;SDS011;51290;45.060;38.948;2023-04-03T00:08:58;3.85;;;1.40;;
64832;SDS011;51290;45.060;38.948;2023-04-03T00:11:24;2.72;;;1.77;;
64832;SDS011;51290;45.060;38.948;2023-04-03T00:13:50;0.90;;;0.90;;
64832;SDS011;51290;45.060;38.948;2023-04-03T00:16:16;1.92;;;1.33;;
64832;SDS011;51290;45.060;38.948;2023-04-03T00:18:42;2.15;;;1.42;;
64832;SDS011;51290;45.060;38.948;2023-04-03T00:21:10;1.55;;;1.27;;
64832;SDS011;51290;45.060;38.948;2023-04-03T00:23:38;2.20;;;1.60;;
64832;SDS011;51290;45.060;38.948;2023-04-03T00:26:04;1.33;;;1.27;;
64832;SDS011;51290;45.060;38.948;2023-04-03T00:28:30;2.20;;;1.98;;
64832;SDS011;51290;45.060;38.948;2023-04-03T00:30:56;3.92;;;1.63;;
64832;SDS011;51290;45.060;38.948;2023-04-03T00:33:22;0.98;;;0.98;;
64832;SDS011;51290;45.060;38.948;2023-04-03T00:35:49;1.70;;;1.60;;
64832;SDS011;51290;45.060;38.948;2023-04-03T00:38:15;1.52;;;1.27;;
64832;SDS011;51290;45.060;38.948;2023-04-03T00:40:43;1.48;;;1.35;;
64832;SDS011;51290;45.060;38.948;2023-04-03T00:43:12;4.32;;;1.58;;
64832;SDS011;51290;45.060;38.948;2023-04-03T00:45:41;2.20;;;1.83;;
64832;SDS011;51290;45.060;38.948;2023-04-03T00:48:13;1.70;;;1.48;;
64832;SDS011;51290;45.060;38.948;2023-04-03T00:50:44;1.73;;;1.50;;
64832;SDS011;51290;45.060;38.948;2023-04-03T00:53:11;3.97;;;1.77;;
64832;SDS011;51290;45.060;38.948;2023-04-03T00:55:43;1.50;;;1.40;;
64832;SDS011;51290;45.060;38.948;2023-04-03T00:58:10;2.88;;;2.03;;
64832;SDS011;51290;45.060;38.948;2023-04-03T01:00:38;2.20;;;1.33;;
64832;SDS011;51290;45.060;38.948;2023-04-03T01:03:07;3.70;;;2.00;;
64832;SDS011;51290;45.060;38.948;2023-04-03T01:05:35;1.60;;;1.40;;
64832;SDS011;51290;45.060;38.948;2023-04-03T01:08:01;1.65;;;1.27;;
64832;SDS011;51290;45.060;38.948;2023-04-03T01:10:27;4.47;;;1.77;;
64832;SDS011;51290;45.060;38.948;2023-04-03T01:12:53;1.63;;;1.45;;
64832;SDS011;51290;45.060;38.948;2023-04-03T01:15:25;4.07;;;2.05;;
64832;SDS011;51290;45.060;38.948;2023-04-03T01:17:55;1.88;;;1.73;;
64832;SDS011;51290;45.060;38.948;2023-04-03T01:20:30;1.88;;;1.25;;
64832;SDS011;51290;45.060;38.948;2023-04-03T01:23:22;1.30;;;1.20;;
64832;SDS011;51290;45.060;38.948;2023-04-03T01:25:55;3.03;;;1.73;;
64832;SDS011;51290;45.060;38.948;2023-04-03T01:28:27;4.82;;;1.50;;
64832;SDS011;51290;45.060;38.948;2023-04-03T01:31:01;2.90;;;1.23;;
64832;SDS011;51290;45.060;38.948;2023-04-03T01:33:34;3.92;;;2.10;;
64832;SDS011;51290;45.060;38.948;2023-04-03T01:36:01;2.42;;;1.40;;
64832;SDS011;51290;45.060;38.948;2023-04-03T01:38:28;5.05;;;2.13;;
64832;SDS011;51290;45.060;38.948;2023-04-03T01:40:54;1.88;;;1.50;;
64832;SDS011;51290;45.060;38.948;2023-04-03T01:43:20;1.38;;;1.20;;
64832;SDS011;51290;45.060;38.948;2023-04-03T01:45:46;1.48;;;1.38;;
64832;SDS011;51290;45.060;38.948;2023-04-03T01:48:16;1.70;;;1.23;;
64832;SDS011;51290;45.060;38.948;2023-04-03T01:50:42;3.40;;;1.45;;
64832;SDS011;51290;45.060;38.948;2023-04-03T01:53:08;1.77;;;1.58;;
64832;SDS011;51290;45.060;38.948;2023-04-03T01:55:34;2.28;;;1.33;;
64832;SDS011;51290;45.060;38.948;2023-04-03T01:58:00;2.25;;;1.48;;
64832;SDS011;51290;45.060;38.948;2023-04-03T02:00:26;1.65;;;1.23;;
64832;SDS011;51290;45.060;38.948;2023-04-03T02:02:52;2.08;;;1.70;;
64832;SDS011;51290;45.060;38.948;2023-04-03T02:05:18;2.42;;;1.75;;
64832;SDS011;51290;45.060;38.948;2023-04-03T02:07:44;2.47;;;1.50;;
64832;SDS011;51290;45.060;38.948;2023-04-03T02:10:11;6.75;;;1.85;;
64832;SDS011;51290;45.060;38.948;2023-04-03T02:12:37;1.83;;;1.45;;
64832;SDS011;51290;45.060;38.948;2023-04-03T02:15:03;1.42;;;1.38;;
64832;SDS011;51290;45.060;38.948;2023-04-03T02:17:30;3.13;;;1.45;;
64832;SDS011;51290;45.060;38.948;2023-04-03T02:19:56;1.25;;;1.00;;
64832;SDS011;51290;45.060;38.948;2023-04-03T02:22:22;2.60;;;1.95;;
64832;SDS011;51290;45.060;38.948;2023-04-03T02:24:50;2.38;;;1.45;;
64832;SDS011;51290;45.060;38.948;2023-04-03T02:27:17;1.45;;;1.35;;
64832;SDS011;51290;45.060;38.948;2023-04-03T02:29:43;2.53;;;2.00;;
64832;SDS011;51290;45.060;38.948;2023-04-03T02:32:09;1.45;;;1.23;;
64832;SDS011;51290;45.060;38.948;2023-04-03T02:34:35;6.03;;;2.03;;
64832;SDS011;51290;45.060;38.948;2023-04-03T02:37:02;1.80;;;1.50;;
64832;SDS011;51290;45.060;38.948;2023-04-03T02:39:28;2.03;;;1.48;;
64832;SDS011;51290;45.060;38.948;2023-04-03T02:41:55;1.92;;;1.73;;
64832;SDS011;51290;45.060;38.948;2023-04-03T02:44:23;2.63;;;1.58;;
64832;SDS011;51290;45.060;38.948;2023-04-03T02:46:51;2.92;;;1.95;;
64832;SDS011;51290;45.060;38.948;2023-04-03T02:49:17;1.60;;;1.50;;
64832;SDS011;51290;45.060;38.948;2023-04-03T02:51:43;1.95;;;1.52;;
64832;SDS011;51290;45.060;38.948;2023-04-03T02:54:10;4.78;;;2.38;;
64832;SDS011;51290;45.060;38.948;2023-04-03T02:56:39;2.22;;;1.90;;
64832;SDS011;51290;45.060;38.948;2023-04-03T02:59:05;6.10;;;1.67;;
64832;SDS011;51290;45.060;38.948;2023-04-03T03:01:34;2.22;;;1.80;;
64832;SDS011;51290;45.060;38.948;2023-04-03T03:04:01;5.93;;;2.00;;
64832;SDS011;51290;45.060;38.948;2023-04-03T03:06:27;3.45;;;2.17;;
64832;SDS011;51290;45.060;38.948;2023-04-03T03:08:53;3.10;;;2.08;;
64832;SDS011;51290;45.060;38.948;2023-04-03T03:11:19;3.85;;;2.00;;
64832;SDS011;51290;45.060;38.948;2023-04-03T03:13:46;4.03;;;2.45;;
64832;SDS011;51290;45.060;38.948;2023-04-03T03:16:12;4.97;;;2.70;;
64832;SDS011;51290;45.060;38.948;2023-04-03T03:18:38;2.20;;;2.00;;
64832;SDS011;51290;45.060;38.948;2023-04-03T03:21:04;3.20;;;2.20;;
64832;SDS011;51290;45.060;38.948;2023-04-03T03:23:31;1.92;;;1.75;;
64832;SDS011;51290;45.060;38.948;2023-04-03T03:25:58;3.53;;;2.30;;
64832;SDS011;51290;45.060;38.948;2023-04-03T03:28:27;2.63;;;1.73;;
64832;SDS011;51290;45.060;38.948;2023-04-03T03:30:53;4.47;;;2.90;;
64832;SDS011;51290;45.060;38.948;2023-04-03T03:33:20;5.00;;;2.53;;
64832;SDS011;51290;45.060;38.948;2023-04-03T03:35:46;3.10;;;1.88;;
64832;SDS011;51290;45.060;38.948;2023-04-03T03:38:12;2.95;;;2.25;;
64832;SDS011;51290;45.060;38.948;2023-04-03T03:40:38;3.78;;;2.53;;
64832;SDS011;51290;45.060;38.948;2023-04-03T03:43:04;4.18;;;2.65;;
64832;SDS011;51290;45.060;38.948;2023-04-03T03:45:30;3.88;;;2.80;;
64832;SDS011;51290;45.060;38.948;2023-04-03T03:47:56;3.40;;;2.45;;
64832;SDS011;51290;45.060;38.948;2023-04-03T03:50:23;3.80;;;2.17;;
64832;SDS011;51290;45.060;38.948;2023-04-03T03:52:49;4.43;;;2.80;;
64832;SDS011;51290;45.060;38.948;2023-04-03T03:55:16;2.50;;;2.00;;
64832;SDS011;51290;45.060;38.948;2023-04-03T03:57:43;3.90;;;2.42;;
64832;SDS011;51290;45.060;38.948;2023-04-03T04:00:10;5.65;;;3.17;;
64832;SDS011;51290;45.060;38.948;2023-04-03T04:02:46;13.05;;;2.53;;
64832;SDS011;51290;45.060;38.948;2023-04-03T04:05:16;3.65;;;2.55;;
64832;SDS011;51290;45.060;38.948;2023-04-03T04:07:42;2.63;;;1.83;;
64832;SDS011;51290;45.060;38.948;2023-04-03T04:10:09;3.13;;;2.30;;
64832;SDS011;51290;45.060;38.948;2023-04-03T04:12:36;2.95;;;2.22;;
64832;SDS011;51290;45.060;38.948;2023-04-03T04:15:02;4.82;;;2.65;;
64832;SDS011;51290;45.060;38.948;2023-04-03T04:17:28;1.98;;;1.83;;
64832;SDS011;51290;45.060;38.948;2023-04-03T04:19:55;4.05;;;2.45;;
64832;SDS011;51290;45.060;38.948;2023-04-03T04:22:22;3.25;;;2.28;;
64832;SDS011;51290;45.060;38.948;2023-04-03T04:24:48;4.22;;;2.55;;
64832;SDS011;51290;45.060;38.948;2023-04-03T04:27:14;6.03;;;2.80;;
64832;SDS011;51290;45.060;38.948;2023-04-03T04:29:41;4.85;;;2.78;;
64832;SDS011;51290;45.060;38.948;2023-04-03T04:32:08;2.97;;;2.35;;
64832;SDS011;51290;45.060;38.948;2023-04-03T04:34:34;2.55;;;2.08;;
64832;SDS011;51290;45.060;38.948;2023-04-03T04:37:01;9.23;;;2.38;;
64832;SDS011;51290;45.060;38.948;2023-04-03T04:39:27;4.50;;;2.75;;
64832;SDS011;51290;45.060;38.948;2023-04-03T04:41:55;5.38;;;2.63;;
64832;SDS011;51290;45.060;38.948;2023-04-03T04:44:25;4.53;;;2.58;;
64832;SDS011;51290;45.060;38.948;2023-04-03T04:46:51;5.28;;;3.13;;
64832;SDS011;51290;45.060;38.948;2023-04-03T04:49:17;2.60;;;2.20;;
64832;SDS011;51290;45.060;38.948;2023-04-03T04:51:43;3.92;;;2.90;;
64832;SDS011;51290;45.060;38.948;2023-04-03T04:54:09;2.22;;;2.03;;
64832;SDS011;51290;45.060;38.948;2023-04-03T04:56:36;5.72;;;2.72;;
64832;SDS011;51290;45.060;38.948;2023-04-03T04:59:03;8.07;;;3.10;;
64832;SDS011;51290;45.060;38.948;2023-04-03T05:01:29;3.38;;;2.50;;
64832;SDS011;51290;45.060;38.948;2023-04-03T05:04:04;4.57;;;2.95;;
64832;SDS011;51290;45.060;38.948;2023-04-03T05:06:30;5.30;;;3.08;;
64832;SDS011;51290;45.060;38.948;2023-04-03T05:08:58;3.88;;;2.80;;
64832;SDS011;51290;45.060;38.948;2023-04-03T05:11:25;7.72;;;3.03;;
64832;SDS011;51290;45.060;38.948;2023-04-03T05:13:52;4.85;;;3.30;;
64832;SDS011;51290;45.060;38.948;2023-04-03T05:16:20;4.30;;;3.30;;
64832;SDS011;51290;45.060;38.948;2023-04-03T05:18:46;4.47;;;2.90;;
64832;SDS011;51290;45.060;38.948;2023-04-03T05:21:17;5.65;;;3.72;;
64832;SDS011;51290;45.060;38.948;2023-04-03T05:23:49;3.53;;;2.63;;
64832;SDS011;51290;45.060;38.948;2023-04-03T05:26:15;4.07;;;2.88;;
64832;SDS011;51290;45.060;38.948;2023-04-03T05:28:44;6.32;;;3.42;;
64832;SDS011;51290;45.060;38.948;2023-04-03T05:31:12;6.07;;;3.47;;
64832;SDS011;51290;45.060;38.948;2023-04-03T05:33:38;9.50;;;2.83;;
64832;SDS011;51290;45.060;38.948;2023-04-03T05:36:07;4.18;;;2.92;;
64832;SDS011;51290;45.060;38.948;2023-04-03T05:38:39;4.03;;;3.03;;
64832;SDS011;51290;45.060;38.948;2023-04-03T05:41:05;5.25;;;2.97;;
64832;SDS011;51290;45.060;38.948;2023-04-03T05:43:31;4.28;;;2.75;;
64832;SDS011;51290;45.060;38.948;2023-04-03T05:46:01;4.50;;;2.90;;
64832;SDS011;51290;45.060;38.948;2023-04-03T05:48:28;6.00;;;3.05;;
64832;SDS011;51290;45.060;38.948;2023-04-03T05:50:54;6.53;;;3.13;;
64832;SDS011;51290;45.060;38.948;2023-04-03T05:53:24;10.30;;;3.75;;
64832;SDS011;51290;45.060;38.948;2023-04-03T05:55:55;3.88;;;2.60;;
64832;SDS011;51290;45.060;38.948;2023-04-03T05:58:21;5.20;;;3.35;;
64832;SDS011;51290;45.060;38.948;2023-04-03T06:00:50;7.28;;;3.63;;
64832;SDS011;51290;45.060;38.948;2023-04-03T06:03:16;5.70;;;3.58;;
64832;SDS011;51290;45.060;38.948;2023-04-03T06:05:42;5.10;;;3.08;;
64832;SDS011;51290;45.060;38.948;2023-04-03T06:08:10;3.85;;;2.67;;
64832;SDS011;51290;45.060;38.948;2023-04-03T06:10:36;6.50;;;3.72;;
64832;SDS011;51290;45.060;38.948;2023-04-03T06:13:02;5.45;;;2.63;;
64832;SDS011;51290;45.060;38.948;2023-04-03T06:15:28;5.65;;;3.30;;
64832;SDS011;51290;45.060;38.948;2023-04-03T06:17:54;4.43;;;3.10;;
64832;SDS011;51290;45.060;38.948;2023-04-03T06:20:21;5.10;;;3.35;;
64832;SDS011;51290;45.060;38.948;2023-04-03T06:22:48;4.10;;;3.17;;
64832;SDS011;51290;45.060;38.948;2023-04-03T06:25:14;5.22;;;3.28;;
64832;SDS011;51290;45.060;38.948;2023-04-03T06:27:42;5.68;;;3.35;;
64832;SDS011;51290;45.060;38.948;2023-04-03T06:30:09;7.38;;;4.15;;
64832;SDS011;51290;45.060;38.948;2023-04-03T06:32:36;7.20;;;3.88;;
64832;SDS011;51290;45.060;38.948;2023-04-03T06:35:03;5.53;;;3.20;;
64832;SDS011;51290;45.060;38.948;2023-04-03T06:37:30;8.38;;;3.80;;
64832;SDS011;51290;45.060;38.948;2023-04-03T06:39:57;5.25;;;3.45;;
64832;SDS011;51290;45.060;38.948;2023-04-03T06:42:25;6.35;;;3.22;;
64832;SDS011;51290;45.060;38.948;2023-04-03T06:45:05;6.72;;;3.78;;
64832;SDS011;51290;45.060;38.948;2023-04-03T06:47:33;6.40;;;3.58;;
64832;SDS011;51290;45.060;38.948;2023-04-03T06:49:58;4.53;;;3.58;;
64832;SDS011;51290;45.060;38.948;2023-04-03T06:52:25;3.95;;;2.30;;
64832;SDS011;51290;45.060;38.948;2023-04-03T06:54:51;3.63;;;2.70;;
64832;SDS011;51290;45.060;38.948;2023-04-03T06:57:22;2.97;;;2.20;;
64832;SDS011;51290;45.060;38.948;2023-04-03T06:59:48;3.47;;;2.53;;
64832;SDS011;51290;45.060;38.948;2023-04-03T07:02:14;2.30;;;1.77;;
64832;SDS011;51290;45.060;38.948;2023-04-03T07:04:40;2.72;;;2.08;;
64832;SDS011;51290;45.060;38.948;2023-04-03T07:07:06;4.57;;;2.65;;
64832;SDS011;51290;45.060;38.948;2023-04-03T07:09:32;5.03;;;2.83;;
64832;SDS011;51290;45.060;38.948;2023-04-03T07:11:59;4.10;;;2.95;;
64832;SDS011;51290;45.060;38.948;2023-04-03T07:14:25;3.08;;;2.35;;
64832;SDS011;51290;45.060;38.948;2023-04-03T07:16:51;2.70;;;2.50;;
64832;SDS011;51290;45.060;38.948;2023-04-03T07:19:17;3.78;;;2.53;;
64832;SDS011;51290;45.060;38.948;2023-04-03T07:21:43;4.18;;;2.28;;
64832;SDS011;51290;45.060;38.948;2023-04-03T07:24:10;3.33;;;2.55;;
64832;SDS011;51290;45.060;38.948;2023-04-03T07:26:36;4.68;;;2.75;;
64832;SDS011;51290;45.060;38.948;2023-04-03T07:29:02;2.90;;;2.17;;
64832;SDS011;51290;45.060;38.948;2023-04-03T07:31:28;2.28;;;2.08;;
64832;SDS011;51290;45.060;38.948;2023-04-03T07:33:54;3.17;;;2.63;;
64832;SDS011;51290;45.060;38.948;2023-04-03T07:36:21;5.88;;;2.90;;
64832;SDS011;51290;45.060;38.948;2023-04-03T07:38:48;2.58;;;2.05;;
64832;SDS011;51290;45.060;38.948;2023-04-03T07:41:15;2.92;;;2.38;;
64832;SDS011;51290;45.060;38.948;2023-04-03T07:43:44;4.57;;;2.65;;
64832;SDS011;51290;45.060;38.948;2023-04-03T07:46:10;4.13;;;3.10;;
64832;SDS011;51290;45.060;38.948;2023-04-03T07:48:36;4.82;;;2.95;;
64832;SDS011;51290;45.060;38.948;2023-04-03T07:51:03;3.80;;;2.35;;
64832;SDS011;51290;45.060;38.948;2023-04-03T07:53:30;3.38;;;2.63;;
64832;SDS011;51290;45.060;38.948;2023-04-03T07:55:58;4.97;;;2.70;;
64832;SDS011;51290;45.060;38.948;2023-04-03T07:58:25;2.58;;;2.22;;
64832;SDS011;51290;45.060;38.948;2023-04-03T08:00:52;2.90;;;2.35;;
64832;SDS011;51290;45.060;38.948;2023-04-03T08:03:18;4.10;;;2.70;;
64832;SDS011;51290;45.060;38.948;2023-04-03T08:05:44;5.00;;;2.60;;
64832;SDS011;51290;45.060;38.948;2023-04-03T08:08:12;3.03;;;2.25;;
64832;SDS011;51290;45.060;38.948;2023-04-03T08:10:40;4.32;;;2.85;;
64832;SDS011;51290;45.060;38.948;2023-04-03T08:13:07;4.13;;;2.60;;
64832;SDS011;51290;45.060;38.948;2023-04-03T08:15:34;2.88;;;2.30;;
64832;SDS011;51290;45.060;38.948;2023-04-03T08:18:00;4.88;;;3.22;;
64832;SDS011;51290;45.060;38.948;2023-04-03T08:20:27;4.53;;;3.00;;
64832;SDS011;51290;45.060;38.948;2023-04-03T08:22:53;5.97;;;4.10;;
64832;SDS011;51290;45.060;38.948;2023-04-03T08:25:20;6.55;;;4.07;;
64832;SDS011;51290;45.060;38.948;2023-04-03T08:27:46;8.30;;;3.53;;
64832;SDS011;51290;45.060;38.948;2023-04-03T08:30:12;5.32;;;3.42;;
64832;SDS011;51290;45.060;38.948;2023-04-03T08:32:39;5.90;;;3.47;;
64832;SDS011;51290;45.060;38.948;2023-04-03T08:35:07;6.72;;;2.85;;
64832;SDS011;51290;45.060;38.948;2023-04-03T08:37:36;3.83;;;2.72;;
64832;SDS011;51290;45.060;38.948;2023-04-03T08:40:04;4.07;;;2.85;;
64832;SDS011;51290;45.060;38.948;2023-04-03T08:42:43;5.20;;;3.13;;
64832;SDS011;51290;45.060;38.948;2023-04-03T08:45:20;5.57;;;3.30;;
64832;SDS011;51290;45.060;38.948;2023-04-03T08:47:56;3.25;;;2.80;;
64832;SDS011;51290;45.060;38.948;2023-04-03T08:50:43;6.63;;;3.30;;
64832;SDS011;51290;45.060;38.948;2023-04-03T08:53:16;4.65;;;2.85;;
64832;SDS011;51290;45.060;38.948;2023-04-03T08:55:47;4.05;;;2.67;;
64832;SDS011;51290;45.060;38.948;2023-04-03T08:58:18;3.90;;;2.50;;
64832;SDS011;51290;45.060;38.948;2023-04-03T09:03:35;4.35;;;3.08;;
64832;SDS011;51290;45.060;38.948;2023-04-03T09:14:22;5.32;;;3.33;;
64832;SDS011;51290;45.060;38.948;2023-04-03T09:19:54;4.13;;;2.88;;
64832;SDS011;51290;45.060;38.948;2023-04-03T09:22:27;4.72;;;3.05;;
64832;SDS011;51290;45.060;38.948;2023-04-03T09:25:04;3.20;;;2.38;;
64832;SDS011;51290;45.060;38.948;2023-04-03T09:27:51;5.60;;;3.30;;
64832;SDS011;51290;45.060;38.948;2023-04-03T09:30:19;3.35;;;2.55;;
64832;SDS011;51290;45.060;38.948;2023-04-03T09:32:50;4.82;;;2.55;;
64832;SDS011;51290;45.060;38.948;2023-04-03T09:35:22;2.20;;;2.00;;
64832;SDS011;51290;45.060;38.948;2023-04-03T09:38:00;2.65;;;2.10;;
64832;SDS011;51290;45.060;38.948;2023-04-03T09:40:46;3.78;;;2.40;;
64832;SDS011;51290;45.060;38.948;2023-04-03T09:46:17;4.03;;;2.80;;
64832;SDS011;51290;45.060;38.948;2023-04-03T09:48:57;4.22;;;2.50;;
64832;SDS011;51290;45.060;38.948;2023-04-03T09:51:26;2.03;;;1.83;;
64832;SDS011;51290;45.060;38.948;2023-04-03T09:53:54;3.00;;;2.10;;
64832;SDS011;51290;45.060;38.948;2023-04-03T09:56:27;1.90;;;1.70;;
64832;SDS011;51290;45.060;38.948;2023-04-03T10:01:26;3.00;;;1.85;;
64832;SDS011;51290;45.060;38.948;2023-04-03T10:09:19;3.80;;;2.20;;
64832;SDS011;51290;45.060;38.948;2023-04-03T10:14:34;2.63;;;2.15;;
64832;SDS011;51290;45.060;38.948;2023-04-03T10:28:26;6.05;;;2.35;;
64832;SDS011;51290;45.060;38.948;2023-04-03T10:36:25;4.45;;;2.50;;
64832;SDS011;51290;45.060;38.948;2023-04-03T10:49:56;2.55;;;2.05;;
64832;SDS011;51290;45.060;38.948;2023-04-03T10:52:37;5.13;;;2.03;;
64832;SDS011;51290;45.060;38.948;2023-04-03T10:55:18;2.67;;;2.33;;
64832;SDS011;51290;45.060;38.948;2023-04-03T10:58:05;2.50;;;2.17;;
64832;SDS011;51290;45.060;38.948;2023-04-03T11:03:07;3.15;;;2.80;;
64832;SDS011;51290;45.060;38.948;2023-04-03T11:08:31;2.38;;;2.17;;
64832;SDS011;51290;45.060;38.948;2023-04-03T11:11:09;3.20;;;2.20;;
64832;SDS011;51290;45.060;38.948;2023-04-03T11:13:45;3.65;;;2.35;;
64832;SDS011;51290;45.060;38.948;2023-04-03T11:16:24;1.80;;;1.70;;
64832;SDS011;51290;45.060;38.948;2023-04-03T11:24:27;4.00;;;2.40;;
64832;SDS011;51290;45.060;38.948;2023-04-03T11:26:57;2.95;;;2.30;;
64832;SDS011;51290;45.060;38.948;2023-04-03T11:29:31;2.33;;;1.92;;
64832;SDS011;51290;45.060;38.948;2023-04-03T11:32:09;2.08;;;1.88;;
64832;SDS011;51290;45.060;38.948;2023-04-03T11:34:42;3.22;;;2.20;;
64832;SDS011;51290;45.060;38.948;2023-04-03T11:37:21;2.92;;;2.15;;
64832;SDS011;51290;45.060;38.948;2023-04-03T11:39:59;3.05;;;2.35;;
64832;SDS011;51290;45.060;38.948;2023-04-03T11:42:42;4.15;;;2.38;;
64832;SDS011;51290;45.060;38.948;2023-04-03T11:48:05;3.30;;;2.38;;
64832;SDS011;51290;45.060;38.948;2023-04-03T11:50:51;3.35;;;2.10;;
64832;SDS011;51290;45.060;38.948;2023-04-03T11:55:59;1.83;;;1.67;;
64832;SDS011;51290;45.060;38.948;2023-04-03T11:58:33;3.45;;;2.03;;
64832;SDS011;51290;45.060;38.948;2023-04-03T12:01:01;2.40;;;2.15;;
64832;SDS011;51290;45.060;38.948;2023-04-03T12:03:30;2.67;;;2.05;;
64832;SDS011;51290;45.060;38.948;2023-04-03T12:13:38;2.30;;;2.10;;
64832;SDS011;51290;45.060;38.948;2023-04-03T12:16:06;2.38;;;2.15;;
64832;SDS011;51290;45.060;38.948;2023-04-03T12:35:21;2.33;;;1.98;;
64832;SDS011;51290;45.060;38.948;2023-04-03T12:46:52;2.55;;;2.10;;
64832;SDS011;51290;45.060;38.948;2023-04-03T12:55:14;1.80;;;1.70;;
64832;SDS011;51290;45.060;38.948;2023-04-03T12:57:41;4.32;;;2.30;;
64832;SDS011;51290;45.060;38.948;2023-04-03T13:00:20;1.77;;;1.67;;
64832;SDS011;51290;45.060;38.948;2023-04-03T13:03:01;2.42;;;2.10;;
64832;SDS011;51290;45.060;38.948;2023-04-03T13:05:29;2.83;;;2.08;;
64832;SDS011;51290;45.060;38.948;2023-04-03T13:08:00;3.13;;;2.30;;
64832;SDS011;51290;45.060;38.948;2023-04-03T13:10:28;5.82;;;2.50;;
64832;SDS011;51290;45.060;38.948;2023-04-03T13:12:58;3.05;;;2.28;;
64832;SDS011;51290;45.060;38.948;2023-04-03T13:15:41;5.07;;;2.53;;
64832;SDS011;51290;45.060;38.948;2023-04-03T13:23:28;2.72;;;2.10;;
64832;SDS011;51290;45.060;38.948;2023-04-03T13:25:55;3.03;;;2.00;;
64832;SDS011;51290;45.060;38.948;2023-04-03T13:28:26;6.47;;;2.50;;
64832;SDS011;51290;45.060;38.948;2023-04-03T13:30:56;4.25;;;2.38;;
64832;SDS011;51290;45.060;38.948;2023-04-03T13:33:28;2.63;;;2.05;;
64832;SDS011;51290;45.060;38.948;2023-04-03T13:36:19;3.83;;;2.35;;
64832;SDS011;51290;45.060;38.948;2023-04-03T13:38:57;2.83;;;2.17;;
64832;SDS011;51290;45.060;38.948;2023-04-03T13:41:32;3.40;;;2.17;;
64832;SDS011;51290;45.060;38.948;2023-04-03T13:44:44;3.30;;;2.30;;
64832;SDS011;51290;45.060;38.948;2023-04-03T13:46:51;2.97;;;2.30;;
64832;SDS011;51290;45.060;38.948;2023-04-03T13:49:34;2.05;;;1.88;;
64832;SDS011;51290;45.060;38.948;2023-04-03T13:52:17;3.78;;;2.22;;
64832;SDS011;51290;45.060;38.948;2023-04-03T13:54:54;4.15;;;2.25;;
64832;SDS011;51290;45.060;38.948;2023-04-03T13:57:26;2.20;;;1.73;;
64832;SDS011;51290;45.060;38.948;2023-04-03T13:59:53;2.70;;;2.30;;
64832;SDS011;51290;45.060;38.948;2023-04-03T14:02:29;3.50;;;2.35;;
64832;SDS011;51290;45.060;38.948;2023-04-03T14:04:59;2.20;;;1.80;;
64832;SDS011;51290;45.060;38.948;2023-04-03T14:07:28;2.50;;;2.08;;
64832;SDS011;51290;45.060;38.948;2023-04-03T14:09:56;2.55;;;2.00;;
64832;SDS011;51290;45.060;38.948;2023-04-03T14:12:26;2.33;;;1.95;;
64832;SDS011;51290;45.060;38.948;2023-04-03T14:14:56;1.92;;;1.77;;
64832;SDS011;51290;45.060;38.948;2023-04-03T14:17:25;2.30;;;2.10;;
64832;SDS011;51290;45.060;38.948;2023-04-03T14:19:53;2.28;;;2.08;;
64832;SDS011;51290;45.060;38.948;2023-04-03T14:22:23;3.50;;;1.75;;
64832;SDS011;51290;45.060;38.948;2023-04-03T14:24:54;2.25;;;1.90;;
64832;SDS011;51290;45.060;38.948;2023-04-03T14:29:49;2.13;;;1.92;;
64832;SDS011;51290;45.060;38.948;2023-04-03T14:32:17;2.10;;;1.50;;
64832;SDS011;51290;45.060;38.948;2023-04-03T14:34:44;4.00;;;2.47;;
64832;SDS011;51290;45.060;38.948;2023-04-03T14:37:12;3.15;;;2.42;;
64832;SDS011;51290;45.060;38.948;2023-04-03T14:39:41;5.50;;;2.60;;
64832;SDS011;51290;45.060;38.948;2023-04-03T14:42:11;3.20;;;2.53;;
64832;SDS011;51290;45.060;38.948;2023-04-03T14:44:43;4.38;;;2.15;;
64832;SDS011;51290;45.060;38.948;2023-04-03T14:47:13;2.20;;;2.00;;
64832;SDS011;51290;45.060;38.948;2023-04-03T14:49:41;4.03;;;2.38;;
64832;SDS011;51290;45.060;38.948;2023-04-03T14:52:25;2.63;;;2.00;;
64832;SDS011;51290;45.060;38.948;2023-04-03T14:54:56;3.20;;;2.47;;
64832;SDS011;51290;45.060;38.948;2023-04-03T14:57:23;8.70;;;2.78;;
64832;SDS011;51290;45.060;38.948;2023-04-03T14:59:51;3.92;;;2.40;;
64832;SDS011;51290;45.060;38.948;2023-04-03T15:02:28;3.25;;;2.30;;
64832;SDS011;51290;45.060;38.948;2023-04-03T15:04:58;4.80;;;3.00;;
64832;SDS011;51290;45.060;38.948;2023-04-03T15:07:27;2.80;;;2.28;;
64832;SDS011;51290;45.060;38.948;2023-04-03T15:09:54;2.60;;;2.40;;
64832;SDS011;51290;45.060;38.948;2023-04-03T15:12:24;2.55;;;2.15;;
64832;SDS011;51290;45.060;38.948;2023-04-03T15:14:50;2.20;;;2.00;;
64832;SDS011;51290;45.060;38.948;2023-04-03T15:17:19;6.00;;;2.78;;
64832;SDS011;51290;45.060;38.948;2023-04-03T15:19:47;3.65;;;2.90;;
64832;SDS011;51290;45.060;38.948;2023-04-03T15:22:15;2.65;;;2.13;;
64832;SDS011;51290;45.060;38.948;2023-04-03T15:24:42;3.33;;;2.30;;
64832;SDS011;51290;45.060;38.948;2023-04-03T15:27:09;10.07;;;2.60;;
64832;SDS011;51290;45.060;38.948;2023-04-03T15:29:37;2.20;;;1.90;;
64832;SDS011;51290;45.060;38.948;2023-04-03T15:32:04;5.15;;;2.30;;
64832;SDS011;51290;45.060;38.948;2023-04-03T15:34:30;3.05;;;2.10;;
64832;SDS011;51290;45.060;38.948;2023-04-03T15:36:57;2.30;;;1.85;;
64832;SDS011;51290;45.060;38.948;2023-04-03T15:39:24;9.15;;;3.70;;
64832;SDS011;51290;45.060;38.948;2023-04-03T15:41:51;2.40;;;2.20;;
64832;SDS011;51290;45.060;38.948;2023-04-03T15:44:17;6.00;;;2.78;;
64832;SDS011;51290;45.060;38.948;2023-04-03T15:46:47;5.18;;;2.40;;
64832;SDS011;51290;45.060;38.948;2023-04-03T15:49:17;2.35;;;2.13;;
64832;SDS011;51290;45.060;38.948;2023-04-03T15:51:44;2.15;;;2.03;;
64832;SDS011;51290;45.060;38.948;2023-04-03T15:54:10;3.92;;;2.22;;
64832;SDS011;51290;45.060;38.948;2023-04-03T15:56:36;2.40;;;1.88;;
64832;SDS011;51290;45.060;38.948;2023-04-03T15:59:02;2.28;;;1.90;;
64832;SDS011;51290;45.060;38.948;2023-04-03T16:01:28;3.97;;;1.75;;
64832;SDS011;51290;45.060;38.948;2023-04-03T16:03:55;5.68;;;2.38;;
64832;SDS011;51290;45.060;38.948;2023-04-03T16:06:21;3.13;;;2.38;;
64832;SDS011;51290;45.060;38.948;2023-04-03T16:08:49;6.78;;;2.72;;
64832;SDS011;51290;45.060;38.948;2023-04-03T16:11:15;3.38;;;2.28;;
64832;SDS011;51290;45.060;38.948;2023-04-03T16:13:41;2.95;;;2.15;;
64832;SDS011;51290;45.060;38.948;2023-04-03T16:16:07;2.80;;;2.10;;
64832;SDS011;51290;45.060;38.948;2023-04-03T16:18:34;4.93;;;2.97;;
64832;SDS011;51290;45.060;38.948;2023-04-03T16:21:00;2.97;;;1.88;;
64832;SDS011;51290;45.060;38.948;2023-04-03T16:23:27;3.00;;;2.30;;
64832;SDS011;51290;45.060;38.948;2023-04-03T16:25:53;4.35;;;3.15;;
64832;SDS011;51290;45.060;38.948;2023-04-03T16:28:19;3.80;;;2.60;;
64832;SDS011;51290;45.060;38.948;2023-04-03T16:30:45;7.57;;;2.90;;
64832;SDS011;51290;45.060;38.948;2023-04-03T16:33:13;3.65;;;2.72;;
64832;SDS011;51290;45.060;38.948;2023-04-03T16:35:39;4.28;;;3.00;;
64832;SDS011;51290;45.060;38.948;2023-04-03T16:38:07;3.67;;;2.10;;
64832;SDS011;51290;45.060;38.948;2023-04-03T16:40:33;3.15;;;2.47;;
64832;SDS011;51290;45.060;38.948;2023-04-03T16:43:00;3.05;;;2.08;;